Time;durP1;ratioP1;P1;durP2;ratioP2;P2;SDS_P1;SDS_P2;PMS_P1;PMS_P2;Temp;Humidity;BMP_temperature;BMP_pressure;BME280_temperature;BME280_humidity;BME280_pressure;Samples;Min_cycle;Max_cycle;Signal;HPM_P1;HPM_P2
2023/03/28 00:00:29;;;;;;;9.30;5.15;;;;;;;2.52;73.50;102581.31;5154905;27;20026;-57
2023/03/28 00:02:55;;;;;;;11.32;6.20;;;;;;;2.57;72.39;102579.56;5156987;27;20026;-57
2023/03/28 00:05:23;;;;;;;8.63;5.28;;;;;;;2.47;73.34;102570.78;5156919;27;20418;-57
2023/03/28 00:07:52;;;;;;;8.18;5.85;;;;;;;2.53;72.89;102578.69;5157055;27;20048;-56
2023/03/28 00:10:18;;;;;;;11.23;5.95;;;;;;;2.51;72.81;102583.06;5136123;27;20031;-56
2023/03/28 00:12:44;;;;;;;10.50;6.55;;;;;;;2.39;73.54;102580.47;5156932;27;20137;-56
2023/03/28 00:15:12;;;;;;;9.30;5.68;;;;;;;2.43;73.51;102577.81;5156577;27;20050;-57
2023/03/28 00:17:40;;;;;;;9.82;5.65;;;;;;;2.31;73.49;102569.97;5157279;27;20021;-57
2023/03/28 00:20:09;;;;;;;16.30;6.93;;;;;;;2.17;74.42;102571.72;5138249;27;20043;-57
2023/03/28 00:22:36;;;;;;;10.60;5.70;;;;;;;2.25;73.91;102572.59;5136114;27;20023;-56
2023/03/28 00:25:05;;;;;;;11.23;5.82;;;;;;;2.28;74.21;102576.06;5135751;27;20766;-56
2023/03/28 00:27:32;;;;;;;9.50;6.07;;;;;;;2.21;74.73;102569.09;5117331;27;20385;-57
2023/03/28 00:29:58;;;;;;;9.32;5.32;;;;;;;2.25;74.02;102578.72;5117852;27;20504;-56
2023/03/28 00:32:23;;;;;;;9.73;5.65;;;;;;;2.20;74.31;102564.69;5100160;27;20027;-56
2023/03/28 00:34:51;;;;;;;11.52;5.50;;;;;;;2.31;74.54;102572.59;5135629;27;20023;-57
2023/03/28 00:37:17;;;;;;;9.00;5.28;;;;;;;2.26;74.68;102575.22;5135820;27;20023;-56
2023/03/28 00:39:48;;;;;;;8.55;5.30;;;;;;;2.20;74.24;102571.72;5152282;27;20362;-57
2023/03/28 00:42:16;;;;;;;8.65;5.30;;;;;;;2.20;74.47;102575.19;5137624;27;20019;-56
2023/03/28 00:44:48;;;;;;;9.55;5.90;;;;;;;2.15;75.11;102576.97;5137100;27;20015;-56
2023/03/28 00:47:42;;;;;;;9.82;6.40;;;;;;;2.23;74.38;102569.09;5156153;27;20477;-57
2023/03/28 00:50:18;;;;;;;11.07;5.57;;;;;;;2.13;74.37;102569.97;5136886;27;20023;-57
2023/03/28 00:53:08;;;;;;;9.07;5.68;;;;;;;2.12;74.80;102574.34;5130422;27;20034;-56
2023/03/28 00:55:45;;;;;;;7.90;5.57;;;;;;;2.07;75.28;102578.72;5116525;27;20018;-56
2023/03/28 00:58:16;;;;;;;9.00;5.20;;;;;;;2.00;75.48;102577.84;5117052;27;20053;-57
2023/03/28 01:00:47;;;;;;;12.27;6.22;;;;;;;1.98;75.43;102576.97;5134820;27;20030;-57
2023/03/28 01:03:14;;;;;;;6.97;5.57;;;;;;;1.92;75.55;102566.47;5133842;27;20034;-56
2023/03/28 01:05:42;;;;;;;11.88;6.25;;;;;;;1.96;75.67;102581.31;5135209;27;20023;-56
2023/03/28 01:08:15;;;;;;;8.18;5.30;;;;;;;1.94;76.23;102576.94;5099956;27;20033;-56
2023/03/28 01:10:43;;;;;;;13.60;6.40;;;;;;;1.92;76.10;102581.34;5116426;27;20027;-56
2023/03/28 01:13:10;;;;;;;8.90;6.27;;;;;;;1.86;76.33;102571.72;5115234;27;20531;-56
2023/03/28 01:15:36;;;;;;;12.97;6.40;;;;;;;1.84;76.34;102583.06;5113978;28;20028;-56
2023/03/28 01:18:02;;;;;;;11.60;6.10;;;;;;;1.84;76.55;102575.22;5114123;28;20970;-57
2023/03/28 01:20:45;;;;;;;10.65;6.40;;;;;;;1.88;76.26;102564.69;5095887;28;20051;-57
2023/03/28 01:23:46;;;;;;;9.50;6.73;;;;;;;1.87;75.98;102564.72;5114292;28;20019;-57
2023/03/28 01:26:26;;;;;;;10.67;6.13;;;;;;;1.86;76.05;102565.59;5024549;28;20091;-56
2023/03/28 01:29:04;;;;;;;10.63;5.75;;;;;;;1.83;76.44;102555.09;5095839;28;20130;-57
2023/03/28 01:31:38;;;;;;;6.85;6.13;;;;;;;1.80;76.04;102569.97;5095573;28;20032;-56
2023/03/28 01:34:21;;;;;;;8.77;5.77;;;;;;;1.73;76.51;102565.56;5113974;28;20048;-57
2023/03/28 01:37:11;;;;;;;9.90;6.07;;;;;;;1.72;76.59;102558.56;5113918;28;20061;-56
2023/03/28 01:39:54;;;;;;;12.43;6.50;;;;;;;1.69;76.49;102560.31;5113565;28;20043;-57
2023/03/28 01:42:44;;;;;;;7.97;6.30;;;;;;;1.61;76.85;102548.94;5113872;28;20036;-56
2023/03/28 01:45:21;;;;;;;11.05;5.88;;;;;;;1.61;77.33;102556.81;5113511;28;20465;-56
2023/03/28 01:48:01;;;;;;;9.43;6.47;;;;;;;1.60;76.99;102553.31;5113766;28;20015;-56
2023/03/28 01:50:41;;;;;;;9.23;5.93;;;;;;;1.57;76.78;102551.56;5115435;27;20034;-57
2023/03/28 01:53:16;;;;;;;11.57;6.10;;;;;;;1.57;77.38;102548.06;5132198;27;20023;-56
2023/03/28 01:56:00;;;;;;;8.07;5.78;;;;;;;1.55;76.79;102553.28;5115719;27;20046;-56
2023/03/28 01:58:45;;;;;;;12.47;6.30;;;;;;;1.53;77.42;102547.19;5134004;27;20015;-57
2023/03/28 02:01:15;;;;;;;7.20;6.10;;;;;;;1.49;77.30;102550.66;5131520;27;20019;-56
2023/03/28 02:03:51;;;;;;;10.20;6.03;;;;;;;1.46;77.31;102555.91;5112768;28;20106;-56
2023/03/28 02:06:20;;;;;;;7.93;6.27;;;;;;;1.34;77.52;102546.25;5113340;28;20102;-57
2023/03/28 02:08:47;;;;;;;11.82;6.47;;;;;;;1.32;78.11;102547.13;5094808;28;20031;-57
2023/03/28 02:11:13;;;;;;;6.07;5.43;;;;;;;1.34;77.76;102556.75;5094850;28;20089;-56
2023/03/28 02:13:52;;;;;;;10.50;6.57;;;;;;;1.33;78.24;102552.38;5112541;27;20031;-56
2023/03/28 02:16:21;;;;;;;12.80;6.47;;;;;;;1.34;79.14;102550.63;5133181;27;20429;-56
2023/03/28 02:18:53;;;;;;;8.50;5.90;;;;;;;1.35;78.44;102548.03;5133600;27;20030;-57
2023/03/28 02:21:24;;;;;;;10.60;6.22;;;;;;;1.35;78.76;102552.38;5115212;27;20026;-56
2023/03/28 02:23:51;;;;;;;9.73;6.57;;;;;;;1.32;78.87;102549.75;5099201;28;20377;-57
2023/03/28 02:26:18;;;;;;;9.15;6.80;;;;;;;1.32;78.79;102547.13;5133297;27;20015;-56
2023/03/28 02:28:47;;;;;;;6.85;6.20;;;;;;;1.29;78.57;102536.63;5133383;27;20462;-56
2023/03/28 02:31:13;;;;;;;10.60;7.13;;;;;;;1.35;78.64;102548.03;5133196;27;20020;-56
2023/03/28 02:33:44;;;;;;;10.80;6.93;;;;;;;1.28;78.61;102541.00;5128413;27;20108;-56
2023/03/28 02:36:29;;;;;;;7.43;6.45;;;;;;;1.30;78.84;102544.50;5112984;28;20473;-56
2023/03/28 02:39:13;;;;;;;9.23;6.77;;;;;;;1.31;78.41;102545.38;5108937;27;20027;-56
2023/03/28 02:41:46;;;;;;;12.67;6.20;;;;;;;1.26;78.62;102542.75;5114995;27;20034;-57
2023/03/28 02:44:37;;;;;;;8.43;6.80;;;;;;;1.22;78.77;102540.13;5115161;27;20034;-56
2023/03/28 02:47:02;;;;;;;;;;;;;;;1.29;77.43;102539.25;5133739;27;20054;-56
2023/03/28 02:49:42;;;;;;;11.07;6.53;;;;;;;1.21;78.39;102544.50;5131404;27;19911;-56
2023/03/28 02:52:24;;;;;;;9.23;6.32;;;;;;;1.19;78.43;102538.38;5114562;27;20470;-56
2023/03/28 02:55:02;;;;;;;8.77;6.43;;;;;;;1.23;78.74;102539.25;5114743;27;20113;-56
2023/03/28 02:57:35;;;;;;;10.67;6.37;;;;;;;1.22;78.77;102534.88;5114715;27;20011;-56
2023/03/28 03:00:12;;;;;;;12.85;6.88;;;;;;;1.19;78.82;102540.97;5098359;28;20023;-56
2023/03/28 03:02:40;;;;;;;18.42;7.53;;;;;;;1.12;78.85;102534.00;5124214;27;20050;-56
2023/03/28 03:05:06;;;;;;;10.83;6.80;;;;;;;1.09;78.88;102531.34;5114423;27;20022;-56
2023/03/28 03:07:32;;;;;;;7.93;6.55;;;;;;;1.07;79.21;102527.84;5112264;28;20020;-57
2023/03/28 03:09:57;;;;;;;8.77;6.83;;;;;;;1.04;79.44;102538.31;5112273;28;20024;-56
2023/03/28 03:12:23;;;;;;;12.00;7.27;;;;;;;1.03;79.40;102539.16;5122970;27;20015;-57
2023/03/28 03:14:51;;;;;;;12.53;6.60;;;;;;;0.95;79.81;102536.53;5152880;27;20038;-56
2023/03/28 03:17:21;;;;;;;10.90;6.57;;;;;;;0.97;80.02;102533.91;5119328;27;20120;-57
2023/03/28 03:19:46;;;;;;;13.40;7.20;;;;;;;0.92;79.55;102535.66;5153170;27;20090;-57
2023/03/28 03:22:14;;;;;;;15.15;7.47;;;;;;;0.96;79.49;102532.16;5153454;27;20541;-57
2023/03/28 03:24:39;;;;;;;12.23;7.23;;;;;;;0.91;80.26;102532.13;5146672;27;20019;-57
2023/03/28 03:27:05;;;;;;;9.63;6.87;;;;;;;0.88;80.17;102537.34;5114011;28;20556;-57
2023/03/28 03:29:30;;;;;;;9.93;6.70;;;;;;;0.92;80.08;102541.75;5133615;27;20030;-56
2023/03/28 03:31:55;;;;;;;13.20;7.10;;;;;;;0.84;80.74;102528.63;5153268;27;20030;-57
2023/03/28 03:34:23;;;;;;;14.40;7.57;;;;;;;0.91;80.07;102532.13;5151550;27;20046;-57
2023/03/28 03:36:48;;;;;;;11.97;7.17;;;;;;;0.93;80.18;102543.50;5113998;28;20058;-56
2023/03/28 03:39:14;;;;;;;10.20;6.83;;;;;;;0.93;80.25;102542.63;5146638;27;20019;-56
2023/03/28 03:41:40;;;;;;;8.15;7.32;;;;;;;0.88;80.37;102535.66;5134144;27;20033;-57
2023/03/28 03:44:05;;;;;;;13.35;7.38;;;;;;;0.92;80.42;102540.91;5153303;27;20054;-56
2023/03/28 03:46:30;;;;;;;12.05;7.10;;;;;;;0.90;80.17;102540.88;5152798;27;20027;-57
2023/03/28 03:48:56;;;;;;;12.00;7.57;;;;;;;0.87;80.96;102544.34;5149386;27;20365;-56
2023/03/28 03:51:21;;;;;;;11.57;7.43;;;;;;;0.85;80.60;102532.13;5153166;27;20030;-57
2023/03/28 03:53:49;;;;;;;12.20;7.40;;;;;;;0.85;80.31;102532.13;5153327;27;20027;-57
2023/03/28 03:56:15;;;;;;;11.83;7.30;;;;;;;0.76;80.80;102530.31;5152888;27;20033;-56
2023/03/28 03:58:40;;;;;;;12.40;7.73;;;;;;;0.73;81.37;102522.47;5132847;27;20393;-57
2023/03/28 04:01:08;;;;;;;12.60;7.40;;;;;;;0.73;81.35;102535.53;5152524;27;20045;-56
2023/03/28 04:03:34;;;;;;;12.17;8.60;;;;;;;0.71;81.10;102534.69;5152823;27;20469;-56
2023/03/28 04:06:04;;;;;;;12.90;7.67;;;;;;;0.72;81.29;102527.69;5152850;27;20075;-57
2023/03/28 04:08:29;;;;;;;11.32;7.63;;;;;;;0.72;81.06;102519.84;5128999;27;20043;-57
2023/03/28 04:10:55;;;;;;;19.33;7.87;;;;;;;0.76;81.38;102532.06;5117045;27;20492;-57
2023/03/28 04:13:20;;;;;;;12.87;8.40;;;;;;;0.79;81.93;102538.19;5144485;27;20023;-56
2023/03/28 04:15:46;;;;;;;11.45;7.47;;;;;;;0.78;80.99;102540.81;5131756;28;20023;-56
2023/03/28 04:18:14;;;;;;;11.25;7.75;;;;;;;0.73;81.37;102534.69;5132189;28;20430;-56
2023/03/28 04:20:42;;;;;;;12.67;8.20;;;;;;;0.65;81.94;102516.34;5132307;28;20038;-56
2023/03/28 04:23:08;;;;;;;15.40;8.27;;;;;;;0.73;81.95;102532.06;5134994;27;20370;-56
2023/03/28 04:25:34;;;;;;;13.35;8.95;;;;;;;0.70;80.82;102525.06;5119542;27;20027;-57
2023/03/28 04:28:00;;;;;;;10.17;8.43;;;;;;;0.72;81.15;102530.31;5115955;27;20019;-56
2023/03/28 04:30:26;;;;;;;10.20;8.10;;;;;;;0.74;81.43;102528.59;5135557;27;20102;-57
2023/03/28 04:32:53;;;;;;;11.47;7.83;;;;;;;0.72;81.33;102527.69;5135477;27;20125;-56
2023/03/28 04:35:19;;;;;;;16.37;8.67;;;;;;;0.65;81.27;102529.41;5118122;27;20037;-56
2023/03/28 04:37:46;;;;;;;15.27;9.53;;;;;;;0.63;81.27;102523.28;5135887;27;20015;-56
2023/03/28 04:40:14;;;;;;;10.10;7.53;;;;;;;0.61;81.96;102523.28;5117214;27;20684;-56
2023/03/28 04:42:40;;;;;;;12.67;8.87;;;;;;;0.59;82.15;102526.75;5136868;27;20007;-56
2023/03/28 04:45:07;;;;;;;16.07;8.97;;;;;;;0.56;81.60;102526.72;5155822;27;20485;-57
2023/03/28 04:47:32;;;;;;;19.10;9.27;;;;;;;0.49;81.95;102510.13;5155981;27;20015;-56
2023/03/28 04:49:58;;;;;;;13.93;8.90;;;;;;;0.49;81.89;102515.34;5156233;27;20094;-57
2023/03/28 04:52:23;;;;;;;15.20;9.43;;;;;;;0.50;82.11;102511.91;5156023;27;20381;-56
2023/03/28 04:54:50;;;;;;;19.63;10.20;;;;;;;0.49;82.21;102525.81;5154134;27;20034;-56
2023/03/28 04:57:15;;;;;;;17.10;10.23;;;;;;;0.50;82.50;102521.47;5155683;27;20022;-57
2023/03/28 04:59:41;;;;;;;18.77;10.20;;;;;;;0.40;82.48;102516.19;5155633;27;20019;-56
2023/03/28 05:02:06;;;;;;;16.30;10.27;;;;;;;0.48;83.15;102534.56;5137050;27;20025;-57
2023/03/28 05:04:31;;;;;;;14.07;10.27;;;;;;;0.47;82.55;102530.16;5135958;27;20058;-57
2023/03/28 05:06:59;;;;;;;20.83;11.43;;;;;;;0.43;82.78;102538.88;5134999;27;20094;-57
2023/03/28 05:09:25;;;;;;;18.60;10.07;;;;;;;0.44;83.33;102538.91;5134874;27;20023;-58
2023/03/28 05:11:50;;;;;;;16.73;10.83;;;;;;;0.43;84.13;102538.88;5134898;27;20084;-56
2023/03/28 05:14:16;;;;;;;17.00;10.13;;;;;;;0.40;83.77;102526.66;5136061;27;20037;-56
2023/03/28 05:16:41;;;;;;;23.07;11.23;;;;;;;0.48;83.47;102537.19;5134493;27;20058;-56
2023/03/28 05:19:08;;;;;;;16.67;10.57;;;;;;;0.50;83.87;102537.16;5134688;27;20053;-57
2023/03/28 05:21:34;;;;;;;20.77;11.77;;;;;;;0.51;83.52;102542.44;5116230;27;20026;-57
2023/03/28 05:24:00;;;;;;;20.50;10.73;;;;;;;0.50;83.66;102535.44;5135680;27;20019;-57
2023/03/28 05:26:26;;;;;;;21.23;12.20;;;;;;;0.50;84.05;102545.91;5134629;27;20478;-56
2023/03/28 05:28:52;;;;;;;16.57;11.20;;;;;;;0.52;83.53;102546.78;5134615;27;20056;-56
2023/03/28 05:31:18;;;;;;;20.77;11.50;;;;;;;0.48;83.40;102546.78;5133719;27;20027;-56
2023/03/28 05:33:45;;;;;;;17.13;11.33;;;;;;;0.51;83.57;102550.28;5134783;27;20063;-56
2023/03/28 05:36:11;;;;;;;14.70;11.20;;;;;;;0.50;83.72;102545.03;5131328;27;20038;-57
2023/03/28 05:38:37;;;;;;;16.70;11.20;;;;;;;0.52;84.25;102551.16;5124235;27;20015;-57
2023/03/28 05:41:02;;;;;;;15.67;11.13;;;;;;;0.55;83.61;102546.78;5115837;27;20023;-57
2023/03/28 05:43:28;;;;;;;20.53;11.77;;;;;;;0.54;84.32;102547.69;5115801;27;20019;-56
2023/03/28 05:45:53;;;;;;;21.93;11.80;;;;;;;0.58;84.36;102554.66;5133644;27;20019;-56
2023/03/28 05:48:19;;;;;;;21.13;11.70;;;;;;;0.55;84.00;102554.66;5121295;27;20037;-56
2023/03/28 05:50:47;;;;;;;22.07;12.97;;;;;;;0.53;84.05;102559.03;5154772;27;20491;-56
2023/03/28 05:53:12;;;;;;;18.47;12.07;;;;;;;0.47;84.68;102556.34;5136442;27;20509;-57
2023/03/28 05:55:38;;;;;;;15.77;11.83;;;;;;;0.45;84.77;102550.25;5136492;27;20105;-57
2023/03/28 05:58:05;;;;;;;20.40;12.10;;;;;;;0.48;84.89;102549.38;5135523;27;20014;-56
2023/03/28 06:00:31;;;;;;;19.50;12.57;;;;;;;0.43;85.50;102549.34;5133129;27;20019;-57
2023/03/28 06:02:57;;;;;;;18.00;11.97;;;;;;;0.44;85.44;102538.91;5115474;27;20015;-56
2023/03/28 06:05:23;;;;;;;19.17;11.33;;;;;;;0.55;86.10;102545.94;5115079;27;20038;-56
2023/03/28 06:07:49;;;;;;;17.00;12.47;;;;;;;0.59;85.18;102540.72;5133695;27;20031;-56
2023/03/28 06:10:16;;;;;;;17.23;12.27;;;;;;;0.66;85.44;102544.25;5149603;27;20046;-56
2023/03/28 06:12:41;;;;;;;23.30;12.80;;;;;;;0.70;85.28;102534.66;5154536;27;20025;-57
2023/03/28 06:15:08;;;;;;;22.17;11.90;;;;;;;0.76;85.47;102538.19;5135141;27;20015;-56
2023/03/28 06:17:36;;;;;;;18.97;12.43;;;;;;;0.81;85.48;102541.72;5154263;27;20109;-56
2023/03/28 06:20:05;;;;;;;21.90;11.27;;;;;;;0.84;85.23;102541.72;5152360;27;20068;-56
2023/03/28 06:22:30;;;;;;;15.17;11.53;;;;;;;0.88;85.67;102542.59;5144184;27;20023;-57
2023/03/28 06:24:56;;;;;;;24.23;11.80;;;;;;;0.91;85.24;102550.47;5131105;27;20098;-56
2023/03/28 06:27:21;;;;;;;16.37;12.23;;;;;;;0.97;85.84;102547.00;5133931;27;20026;-56
2023/03/28 06:29:47;;;;;;;20.43;12.40;;;;;;;0.98;85.42;102547.03;5135074;27;20536;-57
2023/03/28 06:32:14;;;;;;;21.23;12.87;;;;;;;0.94;86.06;102539.13;5140219;27;20493;-57
2023/03/28 06:34:39;;;;;;;14.07;11.63;;;;;;;1.04;85.21;102552.28;5152330;27;20047;-56
2023/03/28 06:37:05;;;;;;;17.83;11.80;;;;;;;1.10;85.35;102556.69;5135686;27;20099;-57
2023/03/28 06:39:30;;;;;;;20.73;11.80;;;;;;;1.14;85.48;102554.06;5153932;27;20166;-57
2023/03/28 06:41:56;;;;;;;29.70;13.07;;;;;;;1.16;85.58;102555.81;5154148;27;20022;-57
2023/03/28 06:44:23;;;;;;;22.60;12.87;;;;;;;1.26;84.80;102562.84;5133178;27;20507;-57
2023/03/28 06:46:51;;;;;;;18.53;12.33;;;;;;;1.31;84.80;102563.72;5153500;27;20054;-56
2023/03/28 06:49:16;;;;;;;18.93;12.67;;;;;;;1.36;84.69;102565.50;5134913;27;20098;-57
2023/03/28 06:51:42;;;;;;;19.37;11.83;;;;;;;1.41;84.95;102565.50;5135002;27;20109;-57
2023/03/28 06:54:07;;;;;;;25.77;12.90;;;;;;;1.50;84.85;102562.03;5133576;27;20018;-57
2023/03/28 06:56:33;;;;;;;18.57;11.57;;;;;;;1.53;84.66;102560.31;5133967;27;20027;-57
2023/03/28 06:59:00;;;;;;;24.63;11.97;;;;;;;1.64;84.14;102567.31;5114372;27;20023;-57
2023/03/28 07:01:28;;;;;;;19.63;12.47;;;;;;;1.70;83.82;102562.06;5114313;27;20039;-57
2023/03/28 07:03:54;;;;;;;23.37;12.63;;;;;;;1.71;83.60;102561.22;5143624;27;20489;-58
2023/03/28 07:06:19;;;;;;;19.33;12.47;;;;;;;1.83;83.93;102569.09;5153448;27;20083;-57
2023/03/28 07:08:45;;;;;;;20.23;12.30;;;;;;;1.92;83.08;102570.84;5153470;27;20031;-57
2023/03/28 07:11:10;;;;;;;21.63;12.98;;;;;;;2.00;83.15;102569.97;5151604;27;20054;-57
2023/03/28 07:13:36;;;;;;;22.10;12.57;;;;;;;2.11;82.90;102564.72;5115533;27;20023;-57
2023/03/28 07:16:10;;;;;;;19.92;13.05;;;;;;;2.19;82.19;102572.59;5132289;27;20496;-57
2023/03/28 07:18:36;;;;;;;20.08;11.70;;;;;;;2.27;81.66;102568.22;5114092;27;20588;-57
2023/03/28 07:21:09;;;;;;;21.00;12.70;;;;;;;2.36;81.58;102564.72;5132599;27;20034;-57
2023/03/28 07:23:40;;;;;;;20.90;12.90;;;;;;;2.45;81.12;102570.81;5133648;27;20023;-57
2023/03/28 07:26:07;;;;;;;19.92;12.55;;;;;;;2.59;80.43;102580.41;5114002;28;20019;-57
2023/03/28 07:28:34;;;;;;;21.13;12.98;;;;;;;2.75;80.90;102578.63;5114068;28;20020;-57
2023/03/28 07:31:01;;;;;;;20.23;12.50;;;;;;;2.88;79.97;102575.06;5132044;27;20023;-57
2023/03/28 07:33:29;;;;;;;21.90;12.18;;;;;;;3.05;79.39;102580.28;5115411;28;20054;-57
2023/03/28 07:35:55;;;;;;;19.75;13.13;;;;;;;3.26;78.54;102580.19;5132600;27;20102;-57
2023/03/28 07:38:20;;;;;;;23.70;11.32;;;;;;;3.38;77.46;102580.16;5114258;28;20110;-57
2023/03/28 07:40:46;;;;;;;17.48;10.35;;;;;;;3.57;76.94;102580.03;5132525;28;20019;-57
2023/03/28 07:43:11;;;;;;;16.63;11.48;;;;;;;3.63;76.79;102582.63;5133683;27;20019;-57
2023/03/28 07:45:37;;;;;;;18.20;10.88;;;;;;;3.64;76.03;102587.88;5131758;28;20023;-57
2023/03/28 07:48:03;;;;;;;19.90;11.15;;;;;;;3.75;76.31;102589.56;5097221;28;20027;-57
2023/03/28 07:50:29;;;;;;;19.58;10.85;;;;;;;3.83;75.46;102579.88;5132394;27;20057;-57
2023/03/28 07:52:58;;;;;;;14.27;9.98;;;;;;;3.69;74.87;102577.31;5132519;28;20051;-57
2023/03/28 07:55:25;;;;;;;15.85;9.68;;;;;;;3.76;75.15;102576.38;5136739;27;20027;-57
2023/03/28 07:57:51;;;;;;;18.08;11.43;;;;;;;3.87;75.16;102578.94;5132396;28;20526;-56
2023/03/28 08:00:17;;;;;;;19.70;10.10;;;;;;;4.01;74.10;102577.09;5113457;28;20019;-57
2023/03/28 08:02:42;;;;;;;19.15;10.82;;;;;;;4.10;74.82;102578.78;5134087;27;20035;-57
2023/03/28 08:05:08;;;;;;;16.60;10.05;;;;;;;4.19;74.55;102585.72;5124052;27;20037;-57
2023/03/28 08:07:35;;;;;;;17.58;8.65;;;;;;;4.27;73.87;102590.06;5138455;27;20022;-57
2023/03/28 08:10:00;;;;;;;19.98;9.55;;;;;;;4.34;72.74;102593.50;5156693;27;20027;-57
2023/03/28 08:12:27;;;;;;;17.50;8.63;;;;;;;4.40;72.13;102584.66;5156825;27;20492;-57
2023/03/28 08:14:52;;;;;;;16.80;10.15;;;;;;;4.49;71.92;102584.56;5145790;27;20045;-57
2023/03/28 08:17:18;;;;;;;15.15;9.38;;;;;;;4.52;72.24;102585.41;5156678;27;20031;-57
2023/03/28 08:19:44;;;;;;;13.85;9.32;;;;;;;4.50;72.13;102584.56;5137697;27;20035;-57
2023/03/28 08:22:11;;;;;;;13.55;9.05;;;;;;;4.50;71.52;102595.13;5138276;27;20482;-57
2023/03/28 08:24:36;;;;;;;12.52;8.90;;;;;;;4.54;71.83;102577.50;5149703;27;20019;-57
2023/03/28 08:27:02;;;;;;;12.60;8.02;;;;;;;4.54;72.51;102562.56;5136785;27;20543;-57
2023/03/28 08:29:29;;;;;;;17.98;9.80;;;;;;;4.59;71.21;102559.00;5100308;27;20427;-57
2023/03/28 08:31:55;;;;;;;14.70;8.60;;;;;;;4.87;71.05;102585.94;5117351;27;20135;-57
2023/03/28 08:34:20;;;;;;;14.27;8.48;;;;;;;4.95;69.68;102579.69;5135445;27;20126;-57
2023/03/28 08:36:46;;;;;;;16.92;9.27;;;;;;;4.98;69.49;102573.50;5141771;27;20451;-57
2023/03/28 08:39:11;;;;;;;17.58;9.15;;;;;;;5.02;69.75;102569.94;5117151;27;20423;-56
2023/03/28 08:41:45;;;;;;;15.10;7.88;;;;;;;5.15;69.49;102570.69;5099791;27;20030;-57
2023/03/28 08:44:29;;;;;;;12.85;8.27;;;;;;;5.26;69.14;102574.03;5134557;27;20023;-56
2023/03/28 08:47:05;;;;;;;14.55;8.82;;;;;;;5.33;67.89;102575.69;5136661;27;20038;-57
2023/03/28 08:49:37;;;;;;;11.30;7.05;;;;;;;5.33;66.73;102580.97;5135416;27;20027;-57
2023/03/28 08:52:04;;;;;;;17.98;8.18;;;;;;;5.15;66.40;102575.94;5117343;27;20390;-57
2023/03/28 08:54:43;;;;;;;12.13;7.75;;;;;;;5.10;66.15;102572.50;5133085;27;20153;-56
2023/03/28 08:57:16;;;;;;;18.58;8.32;;;;;;;5.18;67.39;102578.53;5156272;27;20027;-57
2023/03/28 09:00:12;;;;;;;15.30;8.95;;;;;;;5.16;66.69;102557.44;5153202;27;20030;-57
2023/03/28 09:02:42;;;;;;;14.40;7.78;;;;;;;5.29;66.49;102571.34;5137307;27;20026;-57
2023/03/28 09:05:16;;;;;;;20.38;8.18;;;;;;;5.33;66.69;102570.44;5155999;27;20030;-56
2023/03/28 09:08:02;;;;;;;13.68;8.38;;;;;;;5.34;66.73;102566.00;5156100;27;20023;-57
2023/03/28 09:10:42;;;;;;;16.70;9.07;;;;;;;5.43;65.70;102560.59;5095985;28;20038;-57
2023/03/28 09:13:29;;;;;;;15.35;8.55;;;;;;;5.50;66.32;102561.38;5095967;28;20072;-57
2023/03/28 09:16:18;;;;;;;14.45;7.70;;;;;;;5.42;64.40;102564.16;5113941;28;20107;-56
2023/03/28 09:19:14;;;;;;;13.93;7.35;;;;;;;5.56;64.31;102559.56;5118081;27;20098;-57
2023/03/28 09:21:49;;;;;;;14.25;7.78;;;;;;;5.62;64.97;102562.09;5134957;27;20019;-57
2023/03/28 09:24:29;;;;;;;12.80;9.10;;;;;;;5.53;63.85;102562.25;5116139;27;20095;-57
2023/03/28 09:27:11;;;;;;;9.60;6.57;;;;;;;5.78;63.97;102553.94;5134844;27;20106;-57
2023/03/28 09:29:41;;;;;;;14.82;8.68;;;;;;;5.66;62.99;102550.59;5135053;27;20370;-57
2023/03/28 09:32:29;;;;;;;15.68;8.85;;;;;;;5.80;62.86;102553.03;5134623;27;20019;-57
2023/03/28 09:34:55;;;;;;;9.10;6.32;;;;;;;5.72;61.40;102546.13;5134244;27;20050;-57
2023/03/28 09:37:40;;;;;;;14.70;7.70;;;;;;;5.82;61.47;102545.06;5134239;27;20031;-57
2023/03/28 09:40:13;;;;;;;10.18;5.55;;;;;;;5.81;59.68;102565.31;5135369;27;20038;-57
2023/03/28 09:42:50;;;;;;;11.38;5.88;;;;;;;5.68;58.87;102553.22;5116045;27;20031;-57
2023/03/28 09:45:45;;;;;;;11.80;6.90;;;;;;;5.78;59.63;102543.38;5115414;27;20079;-57
2023/03/28 09:48:17;;;;;;;10.63;6.18;;;;;;;5.92;59.19;102549.31;5115964;27;20028;-56
2023/03/28 09:50:43;;;;;;;12.73;7.30;;;;;;;5.98;58.75;102546.63;5149732;27;20094;-56
2023/03/28 09:53:27;;;;;;;13.15;6.90;;;;;;;5.95;59.18;102538.75;5136278;27;20030;-57
2023/03/28 09:55:56;;;;;;;11.98;6.47;;;;;;;5.92;57.57;102531.69;5154685;27;20026;-57
2023/03/28 09:58:22;;;;;;;10.47;7.27;;;;;;;5.94;57.92;102529.06;5154939;27;20015;-56
2023/03/28 10:00:52;;;;;;;9.93;5.72;;;;;;;6.12;58.57;102520.84;5152434;27;20291;-56
2023/03/28 10:03:28;;;;;;;;;;;;;;;6.32;58.25;102522.22;5155376;27;20027;-57
2023/03/28 10:05:58;;;;;;;9.32;5.30;;;;;;;6.23;56.14;102509.19;5154558;27;20288;-57
2023/03/28 10:08:34;;;;;;;;;;;;;;;6.44;58.04;102524.69;5136563;27;20029;-57
2023/03/28 10:11:05;;;;;;;10.88;5.57;;;;;;;6.42;56.38;102509.75;5133872;27;20017;-57
2023/03/28 10:13:41;;;;;;;8.93;5.35;;;;;;;6.31;56.05;102502.88;5115159;27;20031;-57
2023/03/28 10:16:09;;;;;;;8.95;5.32;;;;;;;6.39;54.35;102491.31;5133452;27;20114;-57
2023/03/28 10:18:36;;;;;;;10.20;5.35;;;;;;;6.53;54.38;102495.41;5154103;27;20026;-57
2023/03/28 10:21:30;;;;;;;9.73;5.93;;;;;;;6.80;54.55;102487.84;5135671;27;20026;-57
2023/03/28 10:24:02;;;;;;;10.27;6.75;;;;;;;6.77;53.78;102507.28;5132229;27;20109;-56
2023/03/28 10:26:28;;;;;;;13.68;6.25;;;;;;;6.71;53.40;102482.75;5133244;27;20027;-57
2023/03/28 10:28:59;;;;;;;9.48;4.85;;;;;;;6.78;51.47;102477.28;5133998;27;20168;-57
2023/03/28 10:31:30;;;;;;;10.98;4.88;;;;;;;6.93;51.44;102472.56;5114737;27;20023;-57
2023/03/28 10:33:58;;;;;;;7.82;4.75;;;;;;;7.06;49.49;102482.00;5133468;27;20057;-56
2023/03/28 10:36:38;;;;;;;9.15;4.75;;;;;;;7.35;50.76;102473.34;5114367;27;20030;-57
2023/03/28 10:39:26;;;;;;;8.98;4.60;;;;;;;7.32;50.39;102473.44;5150810;27;20018;-57
2023/03/28 10:41:58;;;;;;;9.77;5.03;;;;;;;7.36;48.89;102468.97;5153738;27;20033;-57
2023/03/28 10:44:39;;;;;;;8.60;4.80;;;;;;;7.52;49.54;102467.66;5153981;27;20026;-57
2023/03/28 10:47:11;;;;;;;9.65;4.95;;;;;;;7.66;47.82;102454.09;5145313;27;20027;-57
2023/03/28 10:49:47;;;;;;;10.18;4.75;;;;;;;7.85;47.96;102449.19;5114171;27;20077;-57
2023/03/28 10:52:31;;;;;;;8.88;5.00;;;;;;;8.17;49.37;102462.47;5114704;27;20390;-57
2023/03/28 10:55:11;;;;;;;6.80;4.80;;;;;;;8.61;49.49;102462.16;5132793;27;20060;-57
2023/03/28 10:57:55;;;;;;;8.52;4.88;;;;;;;8.79;47.95;102445.72;5115576;27;20389;-57
2023/03/28 11:00:32;;;;;;;9.15;5.28;;;;;;;8.78;46.09;102459.03;5132497;27;20034;-57
2023/03/28 11:03:12;;;;;;;8.15;5.10;;;;;;;8.72;46.33;102456.56;5133145;27;20027;-57
2023/03/28 11:06:10;;;;;;;;;;;;;;;9.00;45.77;102446.88;5132987;27;20035;-57
2023/03/28 11:08:44;;;;;;;12.23;5.30;;;;;;;8.95;45.11;102430.22;5085416;28;19920;-58
2023/03/28 11:11:29;;;;;;;9.43;5.00;;;;;;;9.09;44.38;102419.19;5112473;28;20036;-57
2023/03/28 11:14:16;;;;;;;10.05;4.97;;;;;;;9.47;44.34;102409.97;5112106;28;20035;-58
2023/03/28 11:16:58;;;;;;;6.30;4.65;;;;;;;9.40;43.60;102402.25;5111871;28;20077;-57
2023/03/28 11:20:03;;;;;;;11.20;4.97;;;;;;;9.66;43.39;102399.56;5127155;27;20390;-57
2023/03/28 11:22:46;;;;;;;9.27;5.00;;;;;;;9.87;41.68;102405.06;5048674;28;20039;-57
2023/03/28 11:25:35;;;;;;;12.48;5.20;;;;;;;10.49;42.92;102390.44;5101523;28;20039;-57
2023/03/28 11:28:33;;;;;;;6.05;4.82;;;;;;;11.01;41.54;102383.94;5132613;28;20032;-57
2023/03/28 11:31:00;;;;;;;8.77;4.85;;;;;;;11.11;38.76;102379.97;5113105;28;20054;-57
2023/03/28 11:33:37;;;;;;;9.25;4.30;;;;;;;12.02;39.88;102382.34;5113967;28;20515;-57
2023/03/28 11:36:13;;;;;;;12.52;5.00;;;;;;;12.10;38.17;102379.34;5134266;27;20389;-57
2023/03/28 11:38:43;;;;;;;11.32;4.57;;;;;;;12.25;37.66;102388.47;5137032;27;20015;-57
2023/03/28 11:41:10;;;;;;;7.90;4.22;;;;;;;11.86;36.06;102389.31;5136642;27;20054;-57
2023/03/28 11:44:13;;;;;;;10.63;5.45;;;;;;;12.32;37.21;102368.56;5136756;27;20074;-57